Time;durP1;ratioP1;P1;durP2;ratioP2;P2;SDS_P1;SDS_P2;PMS_P1;PMS_P2;Temp;Humidity;BMP_temperature;BMP_pressure;BME280_temperature;BME280_humidity;BME280_pressure;Samples;Min_cycle;Max_cycle;Signal;HPM_P1;HPM_P2
2022/01/01 00:02:28;;;;;;;96.75;54.97;;;10.10;99.90;;;;;;5090830;28;20055;-67
2022/01/01 00:04:54;;;;;;;95.55;62.08;;;10.10;99.90;;;;;;5091956;28;20383;-67
2022/01/01 00:07:20;;;;;;;103.88;62.08;;;10.10;99.90;;;;;;5091710;28;20082;-67
2022/01/01 00:09:45;;;;;;;90.18;57.05;;;10.20;99.90;;;;;;5090701;28;20082;-67
2022/01/01 00:12:11;;;;;;;83.10;43.53;;;10.20;99.90;;;;;;5091400;28;20048;-68
2022/01/01 00:14:38;;;;;;;80.07;42.20;;;10.30;99.90;;;;;;5091861;28;20043;-69
2022/01/01 00:17:04;;;;;;;78.60;44.28;;;10.30;99.90;;;;;;5092864;28;20055;-67
2022/01/01 00:19:33;;;;;;;77.50;42.88;;;10.20;99.90;;;;;;5090889;28;20055;-68
2022/01/01 00:22:00;;;;;;;81.28;40.00;;;10.20;99.90;;;;;;5090490;28;20094;-67
2022/01/01 00:24:26;;;;;;;84.03;42.47;;;10.20;99.90;;;;;;5092725;28;20156;-67
2022/01/01 00:26:51;;;;;;;73.93;38.97;;;10.20;99.90;;;;;;5092274;28;20402;-68
2022/01/01 00:29:17;;;;;;;79.75;41.70;;;10.20;99.90;;;;;;5090521;28;20059;-67
2022/01/01 00:31:43;;;;;;;88.53;43.55;;;10.20;99.90;;;;;;5090931;28;20171;-68
2022/01/01 00:34:08;;;;;;;79.22;41.17;;;10.30;99.90;;;;;;5091199;28;20482;-67
2022/01/01 00:36:34;;;;;;;65.15;36.50;;;10.20;99.90;;;;;;5090264;28;20060;-67
2022/01/01 00:39:00;;;;;;;69.63;38.15;;;10.30;99.90;;;;;;5092353;28;20040;-67
2022/01/01 00:41:25;;;;;;;66.97;34.88;;;10.30;99.90;;;;;;5090965;28;20143;-67
2022/01/01 00:43:51;;;;;;;64.68;34.53;;;10.10;99.90;;;;;;5091383;28;20044;-67
2022/01/01 00:46:17;;;;;;;64.07;31.15;;;10.20;99.90;;;;;;5092185;28;20448;-67
2022/01/01 00:48:42;;;;;;;63.03;29.58;;;10.20;99.90;;;;;;5090604;28;20080;-67
2022/01/01 00:51:08;;;;;;;67.90;29.08;;;10.20;99.90;;;;;;5090196;28;20062;-68
2022/01/01 00:53:33;;;;;;;51.03;24.13;;;10.10;99.90;;;;;;5090367;28;20460;-69
2022/01/01 00:55:59;;;;;;;60.92;32.00;;;10.20;99.90;;;;;;5091109;28;20052;-67
2022/01/01 00:58:25;;;;;;;58.20;24.67;;;10.10;99.90;;;;;;5089883;28;20566;-68
2022/01/01 01:00:50;;;;;;;62.58;25.45;;;10.20;99.90;;;;;;5090312;28;20131;-67
2022/01/01 01:03:17;;;;;;;50.15;21.60;;;10.10;99.90;;;;;;5090810;28;20048;-67
2022/01/01 01:05:45;;;;;;;54.35;21.73;;;10.00;99.90;;;;;;5089578;28;20127;-67
2022/01/01 01:08:13;;;;;;;51.88;22.17;;;10.00;99.90;;;;;;5091689;28;20106;-67
2022/01/01 01:10:40;;;;;;;52.42;22.45;;;10.00;99.90;;;;;;5091470;28;20081;-68
2022/01/01 01:13:08;;;;;;;50.33;20.73;;;10.00;99.90;;;;;;5090771;28;20085;-67
2022/01/01 01:15:34;;;;;;;52.13;23.08;;;10.00;99.90;;;;;;5091538;28;20048;-68
2022/01/01 01:18:01;;;;;;;55.13;23.35;;;9.90;99.90;;;;;;5090048;28;20557;-67
2022/01/01 01:20:28;;;;;;;52.22;24.23;;;9.80;99.90;;;;;;5091497;28;20071;-67
2022/01/01 01:22:54;;;;;;;57.92;25.58;;;9.80;99.90;;;;;;5090141;28;20047;-67
2022/01/01 01:25:21;;;;;;;67.75;26.45;;;9.90;99.90;;;;;;5089224;28;20048;-68
2022/01/01 01:27:49;;;;;;;58.75;23.55;;;9.70;99.90;;;;;;5089707;28;20123;-67
2022/01/01 01:30:16;;;;;;;59.22;24.77;;;9.80;99.90;;;;;;5089974;28;20079;-67
2022/01/01 01:32:43;;;;;;;52.10;23.20;;;9.70;99.90;;;;;;5090434;28;20402;-67
2022/01/01 01:35:10;;;;;;;45.15;21.20;;;9.60;99.90;;;;;;5090223;28;20052;-67
2022/01/01 01:37:35;;;;;;;51.10;21.30;;;9.60;99.90;;;;;;5091216;28;20079;-67
2022/01/01 01:40:03;;;;;;;48.53;23.40;;;9.70;99.90;;;;;;5089188;28;20070;-67
2022/01/01 01:42:29;;;;;;;54.15;24.50;;;9.60;99.90;;;;;;5089474;28;20051;-67
2022/01/01 01:44:56;;;;;;;56.30;23.85;;;9.70;99.90;;;;;;5091290;28;20047;-67
2022/01/01 01:47:32;;;;;;;45.78;21.17;;;9.60;99.90;;;;;;5090504;28;20044;-67
2022/01/01 01:49:59;;;;;;;55.60;24.15;;;9.60;99.90;;;;;;5089977;28;20044;-67
2022/01/01 01:52:30;;;;;;;57.75;23.45;;;9.50;99.90;;;;;;5091194;28;20056;-67
2022/01/01 01:54:56;;;;;;;47.90;20.65;;;9.40;99.90;;;;;;5090440;28;20429;-67
2022/01/01 01:57:23;;;;;;;52.30;21.17;;;9.50;99.90;;;;;;5091293;28;20039;-67
2022/01/01 01:59:51;;;;;;;59.17;23.50;;;9.50;99.90;;;;;;5090719;28;20052;-67
2022/01/01 02:02:20;;;;;;;54.67;20.80;;;9.40;99.90;;;;;;5088748;28;20131;-67
2022/01/01 02:04:45;;;;;;;63.45;21.88;;;9.40;99.90;;;;;;5090867;28;20437;-67
2022/01/01 02:07:12;;;;;;;55.75;18.80;;;9.40;99.90;;;;;;5088471;28;20043;-68
2022/01/01 02:09:38;;;;;;;49.30;19.42;;;9.40;99.90;;;;;;5090236;28;20582;-68
2022/01/01 02:12:06;;;;;;;55.65;21.13;;;9.30;99.90;;;;;;5089218;28;20056;-67
2022/01/01 02:17:13;;;;;;;57.25;22.98;;;9.40;99.90;;;;;;5090268;28;20138;-67
2022/01/01 02:19:59;;;;;;;69.05;26.42;;;9.30;99.90;;;;;;5089853;28;20550;-67
2022/01/01 02:22:27;;;;;;;73.00;28.90;;;9.40;99.90;;;;;;5088501;28;20052;-67
2022/01/01 02:24:54;;;;;;;75.90;30.15;;;9.50;99.90;;;;;;5088953;28;20052;-67
2022/01/01 02:27:19;;;;;;;88.20;35.60;;;9.50;99.90;;;;;;5090302;28;20051;-68
2022/01/01 02:29:45;;;;;;;77.22;33.42;;;9.70;99.90;;;;;;5088220;28;20455;-68
2022/01/01 02:32:14;;;;;;;93.72;40.13;;;9.60;99.90;;;;;;5088976;28;20048;-67
2022/01/01 02:34:41;;;;;;;90.03;36.85;;;9.70;99.90;;;;;;5090160;28;20048;-67
2022/01/01 02:37:09;;;;;;;90.05;40.58;;;9.70;99.90;;;;;;5087998;28;20048;-67
2022/01/01 02:39:35;;;;;;;85.55;41.35;;;9.70;99.90;;;;;;5089861;28;20047;-68
2022/01/01 02:42:01;;;;;;;91.05;41.40;;;9.70;99.90;;;;;;5089997;28;20048;-67
2022/01/01 02:44:27;;;;;;;93.95;44.03;;;9.80;99.90;;;;;;5089706;28;20044;-67
2022/01/01 02:46:54;;;;;;;101.13;45.85;;;9.80;99.90;;;;;;5088558;28;20052;-68
2022/01/01 02:49:20;;;;;;;97.55;45.13;;;9.80;99.90;;;;;;5088272;28;20090;-68
2022/01/01 02:51:45;;;;;;;89.03;43.08;;;9.80;99.90;;;;;;5089427;28;20487;-67
2022/01/01 02:54:11;;;;;;;98.93;41.67;;;9.70;99.90;;;;;;5090069;28;20036;-67
2022/01/01 02:56:37;;;;;;;72.80;35.03;;;9.70;99.90;;;;;;5088736;28;20042;-67
2022/01/01 02:59:03;;;;;;;82.38;34.60;;;9.80;99.90;;;;;;5088591;28;20044;-67
2022/01/01 03:01:29;;;;;;;75.32;34.05;;;9.70;99.90;;;;;;5088238;28;20048;-68
2022/01/01 03:03:57;;;;;;;67.35;29.52;;;9.70;99.90;;;;;;5087720;28;20643;-67
2022/01/01 03:06:23;;;;;;;71.00;30.63;;;9.70;99.90;;;;;;5088395;28;20783;-68
2022/01/01 03:08:54;;;;;;;71.93;31.85;;;9.80;99.90;;;;;;5089384;28;20052;-68
2022/01/01 03:11:20;;;;;;;86.65;29.42;;;9.80;99.90;;;;;;5088908;28;20062;-67
2022/01/01 03:13:46;;;;;;;75.68;29.70;;;9.80;99.90;;;;;;5087943;28;20075;-67
2022/01/01 03:16:12;;;;;;;74.00;31.45;;;9.90;99.90;;;;;;5088282;28;20044;-67
2022/01/01 03:18:39;;;;;;;71.90;30.90;;;9.90;99.90;;;;;;5087068;28;20087;-68
2022/01/01 03:21:05;;;;;;;73.30;29.60;;;9.90;99.90;;;;;;5089138;28;20412;-67
2022/01/01 03:23:30;;;;;;;77.82;30.52;;;9.90;99.90;;;;;;5087699;28;20060;-67
2022/01/01 03:25:56;;;;;;;88.45;35.97;;;9.80;99.90;;;;;;5088755;28;20048;-68
2022/01/01 03:28:22;;;;;;;83.20;33.33;;;10.00;99.90;;;;;;5088601;28;20040;-67
2022/01/01 03:30:47;;;;;;;71.53;30.40;;;9.80;99.90;;;;;;5087830;28;20547;-67
2022/01/01 03:33:13;;;;;;;81.18;31.70;;;9.80;99.90;;;;;;5088648;28;20036;-67
2022/01/01 03:35:41;;;;;;;72.63;30.33;;;9.90;99.90;;;;;;5087465;28;20126;-67
2022/01/01 03:38:07;;;;;;;81.55;33.45;;;9.90;99.90;;;;;;5087566;28;20439;-67
2022/01/01 03:40:33;;;;;;;90.00;30.83;;;9.90;99.90;;;;;;5088398;28;20048;-67
2022/01/01 03:42:58;;;;;;;76.55;29.35;;;10.00;99.90;;;;;;5087501;28;20494;-67
2022/01/01 03:45:24;;;;;;;87.07;34.15;;;10.00;99.90;;;;;;5088637;28;20036;-67
2022/01/01 03:47:49;;;;;;;70.43;27.88;;;9.90;99.90;;;;;;5087052;28;20175;-68
2022/01/01 03:50:15;;;;;;;65.85;27.50;;;9.90;99.90;;;;;;5088010;28;20048;-67
2022/01/01 03:52:42;;;;;;;73.35;28.92;;;10.00;99.90;;;;;;5087107;28;20155;-68
2022/01/01 03:55:09;;;;;;;75.65;28.55;;;9.90;99.90;;;;;;5089117;28;20082;-67
2022/01/01 03:57:34;;;;;;;78.80;31.27;;;9.90;99.90;;;;;;5087145;28;20506;-68
2022/01/01 04:00:00;;;;;;;84.00;26.77;;;9.90;99.90;;;;;;5088458;28;20040;-68
2022/01/01 04:02:25;;;;;;;55.13;23.48;;;10.00;99.90;;;;;;5089062;28;20483;-67
2022/01/01 04:04:51;;;;;;;74.28;29.83;;;9.90;99.90;;;;;;5087284;28;20044;-67
2022/01/01 04:07:17;;;;;;;71.00;26.33;;;9.90;99.90;;;;;;5086929;28;20681;-67
2022/01/01 04:09:43;;;;;;;79.07;27.88;;;9.90;99.90;;;;;;5087616;28;20070;-67
2022/01/01 04:12:09;;;;;;;72.32;27.00;;;9.80;99.90;;;;;;5088783;28;20553;-67
2022/01/01 04:14:34;;;;;;;75.15;27.77;;;9.80;99.90;;;;;;5088023;28;20453;-68
2022/01/01 04:17:00;;;;;;;57.10;26.05;;;9.80;99.90;;;;;;5087213;28;20559;-67
2022/01/01 04:19:39;;;;;;;72.35;27.45;;;9.90;99.90;;;;;;5087202;28;20143;-67
2022/01/01 04:22:09;;;;;;;74.43;23.92;;;9.80;99.90;;;;;;5088225;28;20056;-67
2022/01/01 04:24:36;;;;;;;66.45;25.70;;;9.80;99.90;;;;;;5088643;28;20062;-67
2022/01/01 04:27:03;;;;;;;68.43;24.55;;;9.80;99.90;;;;;;5087909;28;20111;-68
2022/01/01 04:29:33;;;;;;;63.67;26.45;;;9.90;99.90;;;;;;5086187;28;20060;-67
2022/01/01 04:32:01;;;;;;;67.22;28.38;;;9.80;99.90;;;;;;5088736;28;20047;-68
2022/01/01 04:34:27;;;;;;;68.57;29.08;;;9.90;99.90;;;;;;5088535;28;20552;-67
2022/01/01 04:37:10;;;;;;;71.10;28.95;;;9.90;99.90;;;;;;5087732;28;20073;-68
2022/01/01 04:39:35;;;;;;;65.22;28.52;;;9.70;99.90;;;;;;5088659;28;20044;-67
2022/01/01 04:42:01;;;;;;;66.65;29.85;;;9.80;99.90;;;;;;5090431;28;20044;-68
2022/01/01 04:44:27;;;;;;;67.82;28.30;;;9.80;99.90;;;;;;5091000;28;20044;-67
2022/01/01 04:46:52;;;;;;;56.72;29.25;;;9.80;99.90;;;;;;5090794;28;20052;-67
2022/01/01 04:49:18;;;;;;;61.60;27.77;;;9.70;99.90;;;;;;5091721;28;20127;-68
2022/01/01 04:51:43;;;;;;;70.63;29.70;;;9.80;99.90;;;;;;5090480;28;20394;-67
2022/01/01 04:54:13;;;;;;;72.88;30.75;;;9.80;99.90;;;;;;5092240;28;20102;-67
2022/01/01 04:56:43;;;;;;;64.60;30.20;;;9.70;99.90;;;;;;5089651;28;20056;-67
2022/01/01 04:59:09;;;;;;;58.38;28.05;;;9.80;99.90;;;;;;5092011;28;20071;-67
2022/01/01 05:01:35;;;;;;;77.88;30.52;;;9.80;99.90;;;;;;5091622;28;20097;-67
2022/01/01 05:04:01;;;;;;;84.72;35.70;;;9.80;99.90;;;;;;5091134;28;20436;-67
2022/01/01 05:06:30;;;;;;;72.03;31.17;;;9.70;99.90;;;;;;5090625;28;20052;-67
2022/01/01 05:08:56;;;;;;;73.18;36.03;;;9.90;99.90;;;;;;5091907;28;20563;-67
2022/01/01 05:11:21;;;;;;;74.30;36.80;;;9.90;99.90;;;;;;5091109;28;20040;-67
2022/01/01 05:13:47;;;;;;;67.32;34.50;;;9.90;99.90;;;;;;5091519;28;20834;-68
2022/01/01 05:16:17;;;;;;;74.68;35.20;;;9.90;99.90;;;;;;5091787;28;20035;-65
2022/01/01 05:18:42;;;;;;;80.88;35.35;;;10.00;99.90;;;;;;5090741;28;20047;-65
2022/01/01 05:21:08;;;;;;;84.72;38.70;;;10.00;99.90;;;;;;5089924;28;20836;-64
2022/01/01 05:23:34;;;;;;;85.25;41.70;;;10.10;99.90;;;;;;5091664;28;20036;-65
2022/01/01 05:26:00;;;;;;;88.00;40.63;;;10.10;99.90;;;;;;5091286;28;20436;-65
2022/01/01 05:28:26;;;;;;;86.60;42.70;;;10.10;99.90;;;;;;5090468;28;20050;-65
2022/01/01 05:30:51;;;;;;;89.00;45.90;;;10.10;99.90;;;;;;5091137;28;20051;-65
2022/01/01 05:33:17;;;;;;;79.60;44.30;;;10.10;99.90;;;;;;5090720;28;20117;-64
2022/01/01 05:35:43;;;;;;;82.38;41.00;;;10.00;99.90;;;;;;5091038;28;20040;-65
2022/01/01 05:38:09;;;;;;;79.15;41.17;;;10.00;99.90;;;;;;5089636;28;20071;-65
2022/01/01 05:40:34;;;;;;;77.70;41.33;;;10.00;99.90;;;;;;5091507;28;20462;-65
2022/01/01 05:43:00;;;;;;;88.47;38.85;;;10.70;99.90;;;;;;5089782;28;20459;-65
2022/01/01 05:45:26;;;;;;;72.60;33.33;;;10.00;99.90;;;;;;5089252;28;20051;-65
2022/01/01 05:47:51;;;;;;;69.32;33.85;;;10.00;99.90;;;;;;5089741;28;20044;-65
2022/01/01 05:50:17;;;;;;;79.13;34.30;;;9.90;99.90;;;;;;5089533;28;20052;-65
2022/01/01 05:52:43;;;;;;;85.18;31.52;;;9.80;99.90;;;;;;5089585;28;20438;-65
2022/01/01 05:55:09;;;;;;;67.13;30.60;;;9.80;99.90;;;;;;5091043;28;20055;-65
2022/01/01 05:57:35;;;;;;;55.75;23.73;;;9.80;99.90;;;;;;5090723;28;20040;-65
2022/01/01 06:00:01;;;;;;;83.78;36.03;;;9.80;99.90;;;;;;5089338;28;20043;-65
2022/01/01 06:02:27;;;;;;;82.05;32.40;;;9.70;99.90;;;;;;5089505;28;20051;-65
2022/01/01 06:04:52;;;;;;;86.95;32.03;;;9.80;99.90;;;;;;5089191;28;20499;-65
2022/01/01 06:07:18;;;;;;;77.10;30.55;;;9.80;99.90;;;;;;5088978;28;20074;-65
2022/01/01 06:09:45;;;;;;;67.97;28.85;;;9.80;99.90;;;;;;5089382;28;20509;-67
2022/01/01 06:12:11;;;;;;;91.32;32.05;;;9.80;99.90;;;;;;5089527;28;20055;-67
2022/01/01 06:14:36;;;;;;;82.72;29.10;;;9.90;99.90;;;;;;5088460;28;20047;-67
2022/01/01 06:17:02;;;;;;;85.70;29.70;;;9.90;99.90;;;;;;5089077;28;20059;-67
2022/01/01 06:19:28;;;;;;;68.97;25.98;;;9.80;99.90;;;;;;5088917;28;20059;-67
2022/01/01 06:21:53;;;;;;;80.32;29.20;;;9.90;99.90;;;;;;5088726;28;20048;-67
2022/01/01 06:24:19;;;;;;;96.50;33.33;;;9.90;99.90;;;;;;5090576;28;20051;-67
2022/01/01 06:26:45;;;;;;;88.38;32.35;;;9.90;99.90;;;;;;5090169;28;20406;-67
2022/01/01 06:29:10;;;;;;;66.97;26.30;;;9.80;99.90;;;;;;5088245;28;20098;-67
2022/01/01 06:31:36;;;;;;;79.97;30.67;;;9.90;99.90;;;;;;5088614;28;20054;-67
2022/01/01 06:34:02;;;;;;;87.88;31.50;;;9.90;99.90;;;;;;5090273;28;20384;-67
2022/01/01 06:36:27;;;;;;;59.47;27.13;;;10.00;99.90;;;;;;5088608;28;20044;-67
2022/01/01 06:38:53;;;;;;;72.60;25.17;;;9.90;99.90;;;;;;5088744;28;20557;-68
2022/01/01 06:41:19;;;;;;;65.82;25.55;;;9.90;99.90;;;;;;5088764;28;20047;-67
2022/01/01 06:43:45;;;;;;;66.40;25.92;;;10.00;99.90;;;;;;5089462;28;20063;-68
2022/01/01 06:46:10;;;;;;;62.30;23.63;;;10.10;99.90;;;;;;5090213;28;20474;-67
2022/01/01 06:48:36;;;;;;;65.70;22.77;;;10.00;99.90;;;;;;5087537;28;20067;-68
2022/01/01 06:51:02;;;;;;;58.13;22.17;;;10.00;99.90;;;;;;5089920;28;20044;-67
2022/01/01 06:53:30;;;;;;;66.30;26.80;;;10.10;99.90;;;;;;5088293;28;20047;-68
2022/01/01 06:55:56;;;;;;;47.00;19.23;;;10.10;99.90;;;;;;5087816;28;20062;-67
2022/01/01 06:58:22;;;;;;;63.17;23.27;;;10.00;99.90;;;;;;5088291;28;20079;-67
2022/01/01 07:00:47;;;;;;;57.15;22.13;;;10.20;99.90;;;;;;5089269;28;20091;-67
2022/01/01 07:03:13;;;;;;;55.90;20.60;;;10.20;99.90;;;;;;5088865;28;20105;-67
2022/01/01 07:05:38;;;;;;;58.45;21.23;;;10.20;99.90;;;;;;5088055;28;20081;-67
2022/01/01 07:08:04;;;;;;;44.88;20.38;;;10.20;99.90;;;;;;5088298;28;20090;-68
2022/01/01 07:10:30;;;;;;;53.75;21.25;;;10.20;99.90;;;;;;5088666;28;20071;-67
2022/01/01 07:12:55;;;;;;;51.08;22.23;;;10.10;99.90;;;;;;5089637;28;20522;-67
2022/01/01 07:15:21;;;;;;;47.13;19.90;;;10.10;99.90;;;;;;5088057;28;20059;-67
2022/01/01 07:17:46;;;;;;;57.63;22.30;;;10.10;99.90;;;;;;5088899;28;20500;-68
2022/01/01 07:20:12;;;;;;;64.68;26.08;;;10.10;99.90;;;;;;5088080;28;20067;-67
2022/01/01 07:22:43;;;;;;;52.15;22.80;;;10.10;99.90;;;;;;5087447;28;20055;-67
2022/01/01 07:25:09;;;;;;;54.88;22.00;;;10.20;99.90;;;;;;5087605;28;20193;-67
2022/01/01 07:27:35;;;;;;;61.30;24.48;;;10.10;99.90;;;;;;5087874;28;20052;-67
2022/01/01 07:30:02;;;;;;;46.97;20.80;;;10.30;99.90;;;;;;5088047;28;20051;-67
2022/01/01 07:32:28;;;;;;;63.55;23.42;;;10.20;99.90;;;;;;5087542;28;20398;-67
2022/01/01 07:34:55;;;;;;;60.67;22.48;;;10.20;99.90;;;;;;5089060;28;20052;-67
2022/01/01 07:37:20;;;;;;;62.33;22.27;;;10.20;99.90;;;;;;5089411;28;20448;-67
2022/01/01 07:39:46;;;;;;;45.03;20.52;;;10.30;99.90;;;;;;5087070;28;20055;-67
2022/01/01 07:42:12;;;;;;;48.03;19.02;;;10.20;99.90;;;;;;5089213;28;20066;-67
2022/01/01 07:44:39;;;;;;;64.90;24.00;;;10.40;99.90;;;;;;5088847;28;20384;-67
2022/01/01 07:47:05;;;;;;;54.15;20.92;;;10.20;99.90;;;;;;5088642;28;20052;-67
2022/01/01 07:49:31;;;;;;;66.25;22.80;;;10.40;99.90;;;;;;5088880;28;20143;-68
2022/01/01 07:51:56;;;;;;;62.17;23.58;;;10.30;99.90;;;;;;5086915;28;20048;-68
2022/01/01 07:54:22;;;;;;;68.55;22.20;;;10.30;99.90;;;;;;5088999;28;20059;-68
2022/01/01 07:56:48;;;;;;;57.75;21.88;;;10.30;99.90;;;;;;5087140;28;20056;-67
2022/01/01 07:59:13;;;;;;;46.78;19.27;;;10.40;99.90;;;;;;5086668;28;20098;-67
2022/01/01 08:01:40;;;;;;;61.00;24.52;;;10.40;99.90;;;;;;5087216;28;20048;-68
2022/01/01 08:04:05;;;;;;;61.13;23.60;;;10.40;99.90;;;;;;5087532;28;20120;-67
2022/01/01 08:06:32;;;;;;;74.13;25.38;;;10.40;99.90;;;;;;5087967;28;20055;-67
2022/01/01 08:09:01;;;;;;;62.58;23.70;;;10.50;99.90;;;;;;5088970;28;20040;-67
2022/01/01 08:11:26;;;;;;;55.20;22.60;;;10.40;99.90;;;;;;5089212;28;20040;-67
2022/01/01 08:13:53;;;;;;;56.72;25.70;;;10.60;99.90;;;;;;5087911;28;20441;-67
2022/01/01 08:16:19;;;;;;;55.78;23.70;;;10.50;99.90;;;;;;5092827;28;20383;-68
2022/01/01 08:18:44;;;;;;;65.57;25.08;;;10.60;99.90;;;;;;5091708;28;20071;-67
2022/01/01 08:21:10;;;;;;;69.15;25.38;;;10.70;99.90;;;;;;5092156;28;20522;-67
2022/01/01 08:23:36;;;;;;;61.08;22.67;;;10.60;99.90;;;;;;5092551;28;20482;-68
2022/01/01 08:26:01;;;;;;;62.30;23.83;;;10.80;99.90;;;;;;5092918;28;20499;-67
2022/01/01 08:28:27;;;;;;;57.08;24.75;;;10.80;99.90;;;;;;5091985;28;20043;-67
2022/01/01 08:30:53;;;;;;;47.30;23.27;;;10.60;99.90;;;;;;5092493;28;20044;-68
2022/01/01 08:33:18;;;;;;;63.05;25.42;;;10.70;99.90;;;;;;5093059;28;20052;-67
2022/01/01 08:35:44;;;;;;;62.08;26.98;;;10.70;99.90;;;;;;5091943;28;20399;-68
2022/01/01 08:38:10;;;;;;;62.92;26.42;;;10.90;99.90;;;;;;5091246;28;20097;-67
2022/01/01 08:40:36;;;;;;;50.85;25.58;;;11.00;99.90;;;;;;5091002;28;20199;-68
2022/01/01 08:43:03;;;;;;;56.70;25.52;;;11.00;99.90;;;;;;5090290;28;20048;-67
2022/01/01 08:45:28;;;;;;;61.95;26.73;;;11.00;99.90;;;;;;5092263;28;20060;-68
2022/01/01 08:47:54;;;;;;;56.22;28.38;;;11.10;99.90;;;;;;5090856;28;20043;-67
2022/01/01 08:50:19;;;;;;;63.83;27.15;;;11.10;99.90;;;;;;5091553;28;20044;-67
2022/01/01 08:52:45;;;;;;;57.72;26.95;;;11.10;99.90;;;;;;5090544;28;20398;-68
2022/01/01 08:55:11;;;;;;;56.92;26.27;;;11.00;99.90;;;;;;5090526;28;20052;-68
2022/01/01 08:57:37;;;;;;;56.25;25.08;;;11.20;99.90;;;;;;5090301;28;20047;-67
2022/01/01 09:00:07;;;;;;;53.08;26.55;;;11.20;99.90;;;;;;5092209;28;20390;-67
2022/01/01 09:02:33;;;;;;;55.35;25.45;;;11.20;99.90;;;;;;5089556;28;20093;-68
2022/01/01 09:04:58;;;;;;;48.17;22.67;;;11.30;99.90;;;;;;5090645;28;20505;-68
2022/01/01 09:07:29;;;;;;;50.78;24.67;;;11.20;99.90;;;;;;5090728;28;20040;-67
2022/01/01 09:09:59;;;;;;;50.58;25.60;;;11.30;99.90;;;;;;5089896;28;20465;-68
2022/01/01 09:12:26;;;;;;;46.00;26.27;;;11.30;99.90;;;;;;5091811;28;20804;-68
2022/01/01 09:14:52;;;;;;;45.63;23.50;;;11.40;99.90;;;;;;5090218;28;20047;-67
2022/01/01 09:17:18;;;;;;;54.63;25.20;;;11.50;99.90;;;;;;5089826;28;20157;-67
2022/01/01 09:19:47;;;;;;;45.08;23.60;;;11.60;99.90;;;;;;5091412;28;20517;-67
2022/01/01 09:22:13;;;;;;;45.40;23.00;;;11.50;99.90;;;;;;5091702;28;20490;-67
2022/01/01 09:24:38;;;;;;;39.40;22.85;;;11.50;99.90;;;;;;5089105;28;20135;-67
2022/01/01 09:27:04;;;;;;;39.45;21.73;;;11.70;99.90;;;;;;5090406;28;20067;-68
2022/01/01 09:29:30;;;;;;;47.50;22.17;;;11.60;99.90;;;;;;5090205;28;20097;-68
2022/01/01 09:31:55;;;;;;;34.17;20.83;;;11.70;99.90;;;;;;5089634;28;20067;-67
2022/01/01 09:34:21;;;;;;;40.00;22.20;;;11.70;99.90;;;;;;5090140;28;20044;-67
2022/01/01 09:36:49;;;;;;;40.17;20.30;;;11.70;99.90;;;;;;5091163;28;20486;-67
2022/01/01 09:39:16;;;;;;;35.83;20.13;;;11.80;99.90;;;;;;5090441;28;20406;-67
2022/01/01 09:41:43;;;;;;;38.88;20.90;;;11.80;99.90;;;;;;5089650;28;20051;-67
2022/01/01 09:44:27;;;;;;;43.80;21.63;;;11.70;99.90;;;;;;5089736;28;20475;-68
2022/01/01 09:46:53;;;;;;;35.85;19.27;;;11.90;99.90;;;;;;5088804;28;20128;-67
2022/01/01 09:49:19;;;;;;;37.15;19.27;;;11.90;99.90;;;;;;5090998;28;20502;-67
2022/01/01 09:51:45;;;;;;;33.03;19.25;;;11.80;99.90;;;;;;5089946;28;20048;-68
2022/01/01 09:54:12;;;;;;;34.95;18.42;;;11.80;99.90;;;;;;5091432;28;20410;-67
2022/01/01 09:56:38;;;;;;;36.33;20.58;;;12.00;99.90;;;;;;5090769;28;20044;-67
2022/01/01 09:59:04;;;;;;;38.30;17.45;;;11.90;99.90;;;;;;5090494;28;20048;-67
2022/01/01 10:01:30;;;;;;;35.47;18.80;;;12.00;99.90;;;;;;5091009;28;20043;-68
2022/01/01 10:03:59;;;;;;;36.47;17.67;;;11.90;99.90;;;;;;5090756;28;20512;-67
2022/01/01 10:06:28;;;;;;;41.38;17.70;;;11.90;99.90;;;;;;5088782;28;20060;-67
2022/01/01 10:08:58;;;;;;;35.53;18.33;;;11.90;99.90;;;;;;5089557;28;20063;-67
2022/01/01 10:11:26;;;;;;;40.15;17.52;;;11.80;99.90;;;;;;5090921;28;20122;-68
2022/01/01 10:13:51;;;;;;;31.27;15.85;;;11.80;99.90;;;;;;5088423;28;20087;-67
2022/01/01 10:16:17;;;;;;;31.50;17.05;;;11.90;99.90;;;;;;5089283;28;20079;-67
2022/01/01 10:18:52;;;;;;;33.58;15.77;;;11.70;99.90;;;;;;5088958;28;20101;-67
2022/01/01 10:21:21;;;;;;;33.10;16.75;;;11.80;99.90;;;;;;5088787;28;20044;-67
2022/01/01 10:23:50;;;;;;;31.42;15.85;;;11.70;99.90;;;;;;5090001;28;20039;-68
2022/01/01 10:29:28;;;;;;;23.40;12.55;;;11.90;99.90;;;;;;5088578;28;20047;-67
2022/01/01 10:32:09;;;;;;;24.60;14.45;;;11.80;99.90;;;;;;5090259;28;20487;-68
2022/01/01 10:34:46;;;;;;;27.63;14.63;;;11.80;99.90;;;;;;5088055;28;20052;-68
2022/01/01 10:37:14;;;;;;;28.67;13.60;;;11.90;99.90;;;;;;5088510;28;20071;-67
2022/01/01 10:39:54;;;;;;;23.58;13.35;;;11.90;99.90;;;;;;5089687;28;20052;-67
2022/01/01 10:42:19;;;;;;;27.77;13.90;;;11.80;99.90;;;;;;5087978;28;20130;-67
2022/01/01 10:44:50;;;;;;;22.90;13.75;;;11.90;99.90;;;;;;5088620;28;20154;-67
2022/01/01 10:47:26;;;;;;;22.45;13.07;;;11.90;99.90;;;;;;5087017;28;20099;-67
2022/01/01 10:50:14;;;;;;;21.02;12.45;;;11.90;99.90;;;;;;5087592;28;20063;-67
2022/01/01 10:52:45;;;;;;;20.90;12.27;;;11.80;99.90;;;;;;5089633;28;20547;-68
2022/01/01 10:55:12;;;;;;;25.35;13.13;;;12.00;99.90;;;;;;5089065;28;20054;-67
2022/01/01 10:57:41;;;;;;;29.73;13.23;;;12.00;99.90;;;;;;5089408;28;20090;-68
2022/01/01 11:00:21;;;;;;;26.83;12.30;;;12.00;99.90;;;;;;5089565;28;20105;-68
2022/01/01 11:02:52;;;;;;;23.65;11.88;;;12.00;99.90;;;;;;5087667;28;20122;-67
2022/01/01 11:05:32;;;;;;;21.50;12.30;;;11.90;99.90;;;;;;5089839;28;20376;-67
2022/01/01 11:07:58;;;;;;;24.08;12.32;;;12.00;99.90;;;;;;5105144;28;20422;-67
2022/01/01 11:10:25;;;;;;;22.00;11.85;;;11.90;99.90;;;;;;5089124;28;20079;-68
2022/01/01 11:12:51;;;;;;;22.33;11.68;;;12.00;99.90;;;;;;5089311;28;20080;-67
2022/01/01 11:15:18;;;;;;;20.02;10.85;;;11.90;99.90;;;;;;5105361;28;20456;-67
2022/01/01 11:17:44;;;;;;;22.83;11.27;;;12.00;99.90;;;;;;5087131;28;20410;-68
2022/01/01 11:20:10;;;;;;;24.73;10.65;;;12.00;99.90;;;;;;5087573;28;20137;-67
2022/01/01 11:22:36;;;;;;;19.27;10.80;;;12.10;99.90;;;;;;5087670;28;20059;-68
2022/01/01 11:25:06;;;;;;;20.40;10.60;;;12.10;99.90;;;;;;5087235;28;20044;-68
2022/01/01 11:27:32;;;;;;;17.88;10.80;;;12.00;99.90;;;;;;5088946;28;20039;-68
2022/01/01 11:29:59;;;;;;;15.95;9.20;;;12.00;99.90;;;;;;5088834;28;20062;-68
2022/01/01 11:32:37;;;;;;;21.63;10.10;;;12.10;99.90;;;;;;5089362;28;20052;-68
2022/01/01 11:35:04;;;;;;;19.58;9.30;;;12.10;99.90;;;;;;5088023;28;20058;-67
2022/01/01 11:37:54;;;;;;;16.55;9.75;;;12.10;99.90;;;;;;5086749;28;20486;-68
2022/01/01 11:40:21;;;;;;;20.70;8.40;;;12.20;99.90;;;;;;5089124;28;20490;-67
2022/01/01 11:42:47;;;;;;;22.38;9.48;;;12.20;99.90;;;;;;5088873;28;20048;-68
2022/01/01 11:45:40;;;;;;;19.17;9.40;;;12.30;99.90;;;;;;5088876;28;20036;-67
2022/01/01 11:48:27;;;;;;;19.50;8.90;;;12.20;99.90;;;;;;5089032;28;20802;-67
2022/01/01 11:50:53;;;;;;;15.60;8.57;;;12.20;99.90;;;;;;5094241;28;20262;-67
2022/01/01 11:53:32;;;;;;;15.98;8.35;;;12.30;99.90;;;;;;5097129;28;20167;-67
2022/01/01 11:56:12;;;;;;;16.13;7.90;;;12.30;99.90;;;;;;5095797;28;20052;-69
2022/01/01 11:58:48;;;;;;;18.85;9.50;;;12.30;99.90;;;;;;5095914;28;20047;-67
2022/01/01 12:01:19;;;;;;;12.07;7.82;;;12.30;99.90;;;;;;5093293;28;20048;-67
2022/01/01 12:03:49;;;;;;;15.93;7.95;;;12.40;99.90;;;;;;5079496;28;20044;-67
2022/01/01 12:06:15;;;;;;;13.57;8.35;;;12.40;99.90;;;;;;5080487;28;20055;-67
2022/01/01 12:08:44;;;;;;;20.23;9.20;;;12.40;99.90;;;;;;5071569;28;20415;-67
2022/01/01 12:11:26;;;;;;;22.75;9.55;;;12.40;99.90;;;;;;5080804;28;20398;-67
2022/01/01 12:13:56;;;;;;;15.93;8.48;;;12.30;99.90;;;;;;5074980;28;20097;-67
2022/01/01 12:16:22;;;;;;;19.02;8.80;;;12.30;99.90;;;;;;5077882;28;20056;-67
2022/01/01 12:18:48;;;;;;;14.85;7.82;;;12.20;99.90;;;;;;5075024;28;20040;-67
2022/01/01 12:21:21;;;;;;;14.80;8.38;;;12.20;99.90;;;;;;5079459;28;20047;-67
2022/01/01 12:23:54;;;;;;;18.60;7.38;;;12.20;99.90;;;;;;5087583;28;20082;-67
2022/01/01 12:26:36;;;;;;;17.23;7.57;;;12.30;99.90;;;;;;5075832;28;20055;-67
2022/01/01 12:29:05;;;;;;;12.35;6.60;;;12.30;99.90;;;;;;5066844;28;20083;-68
2022/01/01 12:31:31;;;;;;;16.63;6.68;;;12.30;99.90;;;;;;5066450;28;20122;-67
2022/01/01 12:34:00;;;;;;;10.43;6.72;;;12.30;99.90;;;;;;5072004;28;20442;-66
2022/01/01 12:36:31;;;;;;;12.82;6.85;;;12.40;99.90;;;;;;5073946;28;20083;-67
2022/01/01 12:38:56;;;;;;;11.27;6.13;;;12.30;99.90;;;;;;5088300;28;20036;-67